sensor_id;sensor_type;location;lat;lon;timestamp;temperature;humidity
20335;DHT22;10325;51.468;5.804;2023-02-26T00:00:29;14.70;64.20
20335;DHT22;10325;51.468;5.804;2023-02-26T00:02:58;14.70;64.30
20335;DHT22;10325;51.468;5.804;2023-02-26T00:05:27;14.70;64.30
20335;DHT22;10325;51.468;5.804;2023-02-26T00:07:59;14.70;64.40
20335;DHT22;10325;51.468;5.804;2023-02-26T00:10:32;14.70;64.50
20335;DHT22;10325;51.468;5.804;2023-02-26T00:13:03;14.70;64.50
20335;DHT22;10325;51.468;5.804;2023-02-26T00:15:35;14.70;64.40
20335;DHT22;10325;51.468;5.804;2023-02-26T00:18:08;14.70;64.50
20335;DHT22;10325;51.468;5.804;2023-02-26T00:20:41;14.70;64.50
20335;DHT22;10325;51.468;5.804;2023-02-26T00:23:23;14.70;64.60
20335;DHT22;10325;51.468;5.804;2023-02-26T00:25:56;14.70;64.70
20335;DHT22;10325;51.468;5.804;2023-02-26T00:28:27;14.60;64.60
20335;DHT22;10325;51.468;5.804;2023-02-26T00:30:58;14.60;64.70
20335;DHT22;10325;51.468;5.804;2023-02-26T00:33:28;14.70;64.70
20335;DHT22;10325;51.468;5.804;2023-02-26T00:36:11;14.60;64.80
20335;DHT22;10325;51.468;5.804;2023-02-26T00:38:44;14.60;64.70
20335;DHT22;10325;51.468;5.804;2023-02-26T00:41:16;14.60;64.80
20335;DHT22;10325;51.468;5.804;2023-02-26T00:43:48;14.60;64.70
20335;DHT22;10325;51.468;5.804;2023-02-26T00:46:53;14.60;64.80
20335;DHT22;10325;51.468;5.804;2023-02-26T00:52:05;14.60;64.80
20335;DHT22;10325;51.468;5.804;2023-02-26T00:54:37;14.60;64.80
20335;DHT22;10325;51.468;5.804;2023-02-26T00:57:05;14.60;64.90
20335;DHT22;10325;51.468;5.804;2023-02-26T00:59:36;14.60;64.80
20335;DHT22;10325;51.468;5.804;2023-02-26T01:02:06;14.60;64.70
20335;DHT22;10325;51.468;5.804;2023-02-26T01:04:35;14.60;64.80
20335;DHT22;10325;51.468;5.804;2023-02-26T01:07:04;14.60;65.00
20335;DHT22;10325;51.468;5.804;2023-02-26T01:09:41;14.60;64.90
20335;DHT22;10325;51.468;5.804;2023-02-26T01:12:11;14.60;64.70
20335;DHT22;10325;51.468;5.804;2023-02-26T01:14:40;14.60;64.80
20335;DHT22;10325;51.468;5.804;2023-02-26T01:17:59;14.50;64.80
20335;DHT22;10325;51.468;5.804;2023-02-26T01:20:25;14.60;64.80
20335;DHT22;10325;51.468;5.804;2023-02-26T01:23:04;14.60;64.80
20335;DHT22;10325;51.468;5.804;2023-02-26T01:26:09;14.50;64.80
20335;DHT22;10325;51.468;5.804;2023-02-26T01:28:43;14.50;64.70
20335;DHT22;10325;51.468;5.804;2023-02-26T01:31:29;14.50;64.80
20335;DHT22;10325;51.468;5.804;2023-02-26T01:35:04;14.50;64.90
20335;DHT22;10325;51.468;5.804;2023-02-26T01:43:34;14.50;64.90
20335;DHT22;10325;51.468;5.804;2023-02-26T01:46:36;14.50;64.90
20335;DHT22;10325;51.468;5.804;2023-02-26T01:49:17;14.50;64.80
20335;DHT22;10325;51.468;5.804;2023-02-26T01:51:59;14.40;64.90
20335;DHT22;10325;51.468;5.804;2023-02-26T01:54:38;14.50;64.90
20335;DHT22;10325;51.468;5.804;2023-02-26T01:57:10;14.50;64.70
20335;DHT22;10325;51.468;5.804;2023-02-26T01:59:51;14.50;64.70
20335;DHT22;10325;51.468;5.804;2023-02-26T02:02:24;14.50;64.70
20335;DHT22;10325;51.468;5.804;2023-02-26T02:04:57;14.50;64.50
20335;DHT22;10325;51.468;5.804;2023-02-26T02:07:32;14.50;64.60
20335;DHT22;10325;51.468;5.804;2023-02-26T02:10:06;14.40;64.60
20335;DHT22;10325;51.468;5.804;2023-02-26T02:13:03;14.50;64.70
20335;DHT22;10325;51.468;5.804;2023-02-26T02:15:53;14.50;64.60
20335;DHT22;10325;51.468;5.804;2023-02-26T02:19:06;14.50;64.70
20335;DHT22;10325;51.468;5.804;2023-02-26T02:25:31;14.50;64.70
20335;DHT22;10325;51.468;5.804;2023-02-26T02:31:14;14.40;64.70
20335;DHT22;10325;51.468;5.804;2023-02-26T02:40:21;14.40;64.70
20335;DHT22;10325;51.468;5.804;2023-02-26T02:43:07;14.40;64.90
20335;DHT22;10325;51.468;5.804;2023-02-26T02:45:54;14.40;64.90
20335;DHT22;10325;51.468;5.804;2023-02-26T02:48:39;14.40;64.70
20335;DHT22;10325;51.468;5.804;2023-02-26T02:51:20;14.40;64.60
20335;DHT22;10325;51.468;5.804;2023-02-26T02:54:19;14.40;65.40
20335;DHT22;10325;51.468;5.804;2023-02-26T03:00:10;14.40;65.60
20335;DHT22;10325;51.468;5.804;2023-02-26T03:03:18;14.40;64.90
20335;DHT22;10325;51.468;5.804;2023-02-26T03:05:50;14.40;65.00
20335;DHT22;10325;51.468;5.804;2023-02-26T03:08:25;14.30;65.00
20335;DHT22;10325;51.468;5.804;2023-02-26T03:10:57;14.30;64.90
20335;DHT22;10325;51.468;5.804;2023-02-26T03:13:25;14.30;64.90
20335;DHT22;10325;51.468;5.804;2023-02-26T03:25:03;14.30;64.70
20335;DHT22;10325;51.468;5.804;2023-02-26T03:28:03;14.30;64.90
20335;DHT22;10325;51.468;5.804;2023-02-26T03:36:47;14.30;64.60
20335;DHT22;10325;51.468;5.804;2023-02-26T03:39:42;14.30;64.70
20335;DHT22;10325;51.468;5.804;2023-02-26T03:45:10;14.30;65.20
20335;DHT22;10325;51.468;5.804;2023-02-26T03:47:45;14.30;64.60
20335;DHT22;10325;51.468;5.804;2023-02-26T03:50:43;14.30;64.70
20335;DHT22;10325;51.468;5.804;2023-02-26T03:53:30;14.30;64.60
20335;DHT22;10325;51.468;5.804;2023-02-26T03:56:18;14.30;64.50
20335;DHT22;10325;51.468;5.804;2023-02-26T03:58:52;14.30;64.70
20335;DHT22;10325;51.468;5.804;2023-02-26T04:01:25;14.30;64.60
20335;DHT22;10325;51.468;5.804;2023-02-26T04:04:04;14.30;64.70
20335;DHT22;10325;51.468;5.804;2023-02-26T04:06:34;14.30;64.60
20335;DHT22;10325;51.468;5.804;2023-02-26T04:09:05;14.30;64.70
20335;DHT22;10325;51.468;5.804;2023-02-26T04:11:37;14.20;64.80
20335;DHT22;10325;51.468;5.804;2023-02-26T04:14:06;14.30;64.80
20335;DHT22;10325;51.468;5.804;2023-02-26T04:16:35;14.30;64.80
20335;DHT22;10325;51.468;5.804;2023-02-26T04:19:08;14.30;64.80
20335;DHT22;10325;51.468;5.804;2023-02-26T04:21:38;14.30;64.80
20335;DHT22;10325;51.468;5.804;2023-02-26T04:24:10;14.20;64.70
20335;DHT22;10325;51.468;5.804;2023-02-26T04:26:38;14.20;64.60
20335;DHT22;10325;51.468;5.804;2023-02-26T04:29:08;14.20;64.70
20335;DHT22;10325;51.468;5.804;2023-02-26T04:31:37;14.20;64.70
20335;DHT22;10325;51.468;5.804;2023-02-26T04:34:11;14.30;64.70
20335;DHT22;10325;51.468;5.804;2023-02-26T04:36:39;14.20;64.70
20335;DHT22;10325;51.468;5.804;2023-02-26T04:39:11;14.20;64.60
20335;DHT22;10325;51.468;5.804;2023-02-26T04:41:42;14.20;64.60
20335;DHT22;10325;51.468;5.804;2023-02-26T04:44:13;14.20;64.70
20335;DHT22;10325;51.468;5.804;2023-02-26T04:46:46;14.20;64.70
20335;DHT22;10325;51.468;5.804;2023-02-26T04:49:16;14.20;64.80
20335;DHT22;10325;51.468;5.804;2023-02-26T04:51:47;14.20;64.60
20335;DHT22;10325;51.468;5.804;2023-02-26T04:54:22;14.20;64.70
20335;DHT22;10325;51.468;5.804;2023-02-26T04:56:54;14.20;64.70
20335;DHT22;10325;51.468;5.804;2023-02-26T04:59:23;14.20;64.70
20335;DHT22;10325;51.468;5.804;2023-02-26T05:01:54;14.20;64.80
20335;DHT22;10325;51.468;5.804;2023-02-26T05:04:24;14.20;64.70
20335;DHT22;10325;51.468;5.804;2023-02-26T05:06:56;14.20;64.70
20335;DHT22;10325;51.468;5.804;2023-02-26T05:09:28;14.20;64.80
20335;DHT22;10325;51.468;5.804;2023-02-26T05:11:59;14.20;64.70
20335;DHT22;10325;51.468;5.804;2023-02-26T05:14:29;14.10;64.70
20335;DHT22;10325;51.468;5.804;2023-02-26T05:17:02;14.20;64.80
20335;DHT22;10325;51.468;5.804;2023-02-26T05:19:30;14.10;64.70
20335;DHT22;10325;51.468;5.804;2023-02-26T05:22:02;14.10;64.70
20335;DHT22;10325;51.468;5.804;2023-02-26T05:24:31;14.10;64.70
20335;DHT22;10325;51.468;5.804;2023-02-26T05:27:04;14.10;64.80
20335;DHT22;10325;51.468;5.804;2023-02-26T05:29:32;14.10;64.80
20335;DHT22;10325;51.468;5.804;2023-02-26T05:32:04;14.10;64.80
20335;DHT22;10325;51.468;5.804;2023-02-26T05:34:34;14.00;64.80
20335;DHT22;10325;51.468;5.804;2023-02-26T05:37:05;14.00;64.80
20335;DHT22;10325;51.468;5.804;2023-02-26T05:39:36;14.10;64.80
20335;DHT22;10325;51.468;5.804;2023-02-26T05:42:05;14.10;64.70
20335;DHT22;10325;51.468;5.804;2023-02-26T05:44:36;14.10;64.80
20335;DHT22;10325;51.468;5.804;2023-02-26T05:47:08;14.10;64.80
20335;DHT22;10325;51.468;5.804;2023-02-26T05:49:40;14.10;64.80
20335;DHT22;10325;51.468;5.804;2023-02-26T05:52:12;14.10;64.60
20335;DHT22;10325;51.468;5.804;2023-02-26T05:54:42;14.00;64.60
20335;DHT22;10325;51.468;5.804;2023-02-26T05:57:10;14.00;64.60
20335;DHT22;10325;51.468;5.804;2023-02-26T05:59:40;14.00;64.60
20335;DHT22;10325;51.468;5.804;2023-02-26T06:02:12;14.00;64.60
20335;DHT22;10325;51.468;5.804;2023-02-26T06:04:45;14.00;64.50
20335;DHT22;10325;51.468;5.804;2023-02-26T06:07:15;14.00;64.50
20335;DHT22;10325;51.468;5.804;2023-02-26T06:09:44;14.00;64.50
20335;DHT22;10325;51.468;5.804;2023-02-26T06:12:12;14.00;64.50
20335;DHT22;10325;51.468;5.804;2023-02-26T06:14:40;14.00;64.40
20335;DHT22;10325;51.468;5.804;2023-02-26T06:17:09;14.00;64.30
20335;DHT22;10325;51.468;5.804;2023-02-26T06:19:39;14.00;64.30
20335;DHT22;10325;51.468;5.804;2023-02-26T06:22:10;14.00;64.30
20335;DHT22;10325;51.468;5.804;2023-02-26T06:24:40;14.00;64.30
20335;DHT22;10325;51.468;5.804;2023-02-26T06:27:12;14.00;64.30
20335;DHT22;10325;51.468;5.804;2023-02-26T06:29:44;14.00;64.20
20335;DHT22;10325;51.468;5.804;2023-02-26T06:32:15;13.90;64.10
20335;DHT22;10325;51.468;5.804;2023-02-26T06:34:49;14.00;64.10
20335;DHT22;10325;51.468;5.804;2023-02-26T06:37:21;13.90;64.00
20335;DHT22;10325;51.468;5.804;2023-02-26T06:39:52;13.90;64.00
20335;DHT22;10325;51.468;5.804;2023-02-26T06:42:19;13.90;64.00
20335;DHT22;10325;51.468;5.804;2023-02-26T06:44:50;13.90;63.90
20335;DHT22;10325;51.468;5.804;2023-02-26T06:47:21;13.90;63.80
20335;DHT22;10325;51.468;5.804;2023-02-26T06:49:53;13.90;63.80
20335;DHT22;10325;51.468;5.804;2023-02-26T06:52:23;14.00;63.80
20335;DHT22;10325;51.468;5.804;2023-02-26T06:54:56;13.90;63.70
20335;DHT22;10325;51.468;5.804;2023-02-26T06:57:27;13.90;63.70
20335;DHT22;10325;51.468;5.804;2023-02-26T06:59:55;13.90;63.70
20335;DHT22;10325;51.468;5.804;2023-02-26T07:02:25;13.90;63.60
20335;DHT22;10325;51.468;5.804;2023-02-26T07:04:56;13.90;63.60
20335;DHT22;10325;51.468;5.804;2023-02-26T07:07:27;13.90;63.50
20335;DHT22;10325;51.468;5.804;2023-02-26T07:09:58;13.90;63.50
20335;DHT22;10325;51.468;5.804;2023-02-26T07:12:28;13.90;63.50
20335;DHT22;10325;51.468;5.804;2023-02-26T07:14:57;13.90;63.50
20335;DHT22;10325;51.468;5.804;2023-02-26T07:17:25;13.90;63.50
20335;DHT22;10325;51.468;5.804;2023-02-26T07:19:56;13.80;63.40
20335;DHT22;10325;51.468;5.804;2023-02-26T07:22:27;13.90;63.50
20335;DHT22;10325;51.468;5.804;2023-02-26T07:24:59;13.90;63.40
20335;DHT22;10325;51.468;5.804;2023-02-26T07:27:31;14.00;63.40
20335;DHT22;10325;51.468;5.804;2023-02-26T07:30:07;13.90;63.30
20335;DHT22;10325;51.468;5.804;2023-02-26T07:32:43;13.90;63.30
20335;DHT22;10325;51.468;5.804;2023-02-26T07:35:10;14.00;63.30
20335;DHT22;10325;51.468;5.804;2023-02-26T07:37:54;13.90;63.10
20335;DHT22;10325;51.468;5.804;2023-02-26T07:40:25;13.90;63.10
20335;DHT22;10325;51.468;5.804;2023-02-26T07:42:55;13.90;63.20
20335;DHT22;10325;51.468;5.804;2023-02-26T07:45:30;13.90;63.20
20335;DHT22;10325;51.468;5.804;2023-02-26T07:47:58;13.90;63.30
20335;DHT22;10325;51.468;5.804;2023-02-26T07:50:28;14.00;63.30
20335;DHT22;10325;51.468;5.804;2023-02-26T07:52:57;13.90;63.20
20335;DHT22;10325;51.468;5.804;2023-02-26T07:55:30;13.90;63.10
20335;DHT22;10325;51.468;5.804;2023-02-26T07:57:58;13.90;63.10
20335;DHT22;10325;51.468;5.804;2023-02-26T08:00:30;13.90;63.00
20335;DHT22;10325;51.468;5.804;2023-02-26T08:03:00;13.90;62.90
20335;DHT22;10325;51.468;5.804;2023-02-26T08:05:30;13.90;62.90
20335;DHT22;10325;51.468;5.804;2023-02-26T08:08:01;13.90;62.80
20335;DHT22;10325;51.468;5.804;2023-02-26T08:10:32;14.00;62.80
20335;DHT22;10325;51.468;5.804;2023-02-26T08:13:00;14.00;62.90
20335;DHT22;10325;51.468;5.804;2023-02-26T08:15:31;14.00;62.80
20335;DHT22;10325;51.468;5.804;2023-02-26T08:18:03;14.00;62.70
20335;DHT22;10325;51.468;5.804;2023-02-26T08:20:36;14.00;62.80
20335;DHT22;10325;51.468;5.804;2023-02-26T08:23:19;14.00;62.70
20335;DHT22;10325;51.468;5.804;2023-02-26T08:25:50;14.00;62.80
20335;DHT22;10325;51.468;5.804;2023-02-26T08:28:21;14.00;62.70
20335;DHT22;10325;51.468;5.804;2023-02-26T08:30:52;14.00;63.50
20335;DHT22;10325;51.468;5.804;2023-02-26T08:33:21;14.10;63.50
20335;DHT22;10325;51.468;5.804;2023-02-26T08:35:51;14.00;64.00
20335;DHT22;10325;51.468;5.804;2023-02-26T08:38:20;14.10;64.00
20335;DHT22;10325;51.468;5.804;2023-02-26T08:40:51;14.10;63.70
20335;DHT22;10325;51.468;5.804;2023-02-26T08:43:21;14.10;63.40
20335;DHT22;10325;51.468;5.804;2023-02-26T08:45:55;14.10;63.30
20335;DHT22;10325;51.468;5.804;2023-02-26T08:48:27;14.10;63.00
20335;DHT22;10325;51.468;5.804;2023-02-26T08:51:02;14.10;62.50
20335;DHT22;10325;51.468;5.804;2023-02-26T08:53:33;14.10;62.70
20335;DHT22;10325;51.468;5.804;2023-02-26T08:56:02;14.10;62.60
20335;DHT22;10325;51.468;5.804;2023-02-26T08:58:32;14.10;62.80
20335;DHT22;10325;51.468;5.804;2023-02-26T09:01:06;14.10;62.60
20335;DHT22;10325;51.468;5.804;2023-02-26T09:03:40;14.10;62.70
20335;DHT22;10325;51.468;5.804;2023-02-26T09:06:08;14.10;62.70
20335;DHT22;10325;51.468;5.804;2023-02-26T09:08:39;14.10;62.60
20335;DHT22;10325;51.468;5.804;2023-02-26T09:11:09;14.10;62.30
20335;DHT22;10325;51.468;5.804;2023-02-26T09:13:41;14.10;62.20
20335;DHT22;10325;51.468;5.804;2023-02-26T09:16:10;14.10;62.20
20335;DHT22;10325;51.468;5.804;2023-02-26T09:18:37;14.10;62.30
20335;DHT22;10325;51.468;5.804;2023-02-26T09:21:20;14.10;62.30
20335;DHT22;10325;51.468;5.804;2023-02-26T09:23:51;14.10;62.30
20335;DHT22;10325;51.468;5.804;2023-02-26T09:26:20;14.10;62.20
20335;DHT22;10325;51.468;5.804;2023-02-26T09:28:51;14.10;62.30
20335;DHT22;10325;51.468;5.804;2023-02-26T09:31:21;14.10;62.20
20335;DHT22;10325;51.468;5.804;2023-02-26T09:33:51;14.20;62.30
20335;DHT22;10325;51.468;5.804;2023-02-26T09:36:23;14.10;62.20
20335;DHT22;10325;51.468;5.804;2023-02-26T09:38:54;14.20;61.90
20335;DHT22;10325;51.468;5.804;2023-02-26T09:41:33;14.20;62.00
20335;DHT22;10325;51.468;5.804;2023-02-26T09:44:23;14.20;62.20
20335;DHT22;10325;51.468;5.804;2023-02-26T09:55:39;14.20;62.30
20335;DHT22;10325;51.468;5.804;2023-02-26T09:58:38;14.20;62.40
20335;DHT22;10325;51.468;5.804;2023-02-26T10:01:30;14.20;62.40
20335;DHT22;10325;51.468;5.804;2023-02-26T10:13:00;14.30;62.40
20335;DHT22;10325;51.468;5.804;2023-02-26T10:15:56;14.30;62.50
20335;DHT22;10325;51.468;5.804;2023-02-26T10:18:32;14.30;62.40
20335;DHT22;10325;51.468;5.804;2023-02-26T10:21:14;14.30;62.40
20335;DHT22;10325;51.468;5.804;2023-02-26T10:24:17;14.30;62.40
20335;DHT22;10325;51.468;5.804;2023-02-26T10:26:59;14.30;62.40
20335;DHT22;10325;51.468;5.804;2023-02-26T10:32:48;14.30;62.50
20335;DHT22;10325;51.468;5.804;2023-02-26T10:35:20;14.30;62.20
20335;DHT22;10325;51.468;5.804;2023-02-26T10:41:14;14.30;61.80
20335;DHT22;10325;51.468;5.804;2023-02-26T10:43:56;14.40;61.70
20335;DHT22;10325;51.468;5.804;2023-02-26T10:47:04;14.50;61.80
20335;DHT22;10325;51.468;5.804;2023-02-26T10:52:43;14.70;61.30
20335;DHT22;10325;51.468;5.804;2023-02-26T10:55:23;14.70;60.90
20335;DHT22;10325;51.468;5.804;2023-02-26T11:00:52;14.90;60.90
20335;DHT22;10325;51.468;5.804;2023-02-26T11:03:36;15.00;60.70
20335;DHT22;10325;51.468;5.804;2023-02-26T11:06:06;15.00;60.60
20335;DHT22;10325;51.468;5.804;2023-02-26T11:08:57;15.10;60.60
20335;DHT22;10325;51.468;5.804;2023-02-26T11:11:55;15.20;60.70
20335;DHT22;10325;51.468;5.804;2023-02-26T11:14:26;15.30;60.80
20335;DHT22;10325;51.468;5.804;2023-02-26T11:17:03;15.30;60.80
20335;DHT22;10325;51.468;5.804;2023-02-26T11:19:41;15.30;60.70
20335;DHT22;10325;51.468;5.804;2023-02-26T11:22:28;15.40;60.60
20335;DHT22;10325;51.468;5.804;2023-02-26T11:24:58;15.50;60.70
20335;DHT22;10325;51.468;5.804;2023-02-26T11:27:34;15.50;60.60
20335;DHT22;10325;51.468;5.804;2023-02-26T11:30:41;15.60;60.40
20335;DHT22;10325;51.468;5.804;2023-02-26T11:33:12;15.60;60.30
20335;DHT22;10325;51.468;5.804;2023-02-26T11:35:45;15.70;60.20
20335;DHT22;10325;51.468;5.804;2023-02-26T11:38:24;15.70;59.70
20335;DHT22;10325;51.468;5.804;2023-02-26T11:41:00;15.80;59.40
20335;DHT22;10325;51.468;5.804;2023-02-26T11:43:47;15.80;59.60
20335;DHT22;10325;51.468;5.804;2023-02-26T11:46:22;15.90;59.70
20335;DHT22;10325;51.468;5.804;2023-02-26T11:48:52;15.90;59.30
20335;DHT22;10325;51.468;5.804;2023-02-26T11:51:28;16.00;59.20
20335;DHT22;10325;51.468;5.804;2023-02-26T11:54:02;15.90;58.90
20335;DHT22;10325;51.468;5.804;2023-02-26T11:56:42;15.90;59.30
20335;DHT22;10325;51.468;5.804;2023-02-26T11:59:21;15.80;59.90
20335;DHT22;10325;51.468;5.804;2023-02-26T12:01:53;15.80;59.60
20335;DHT22;10325;51.468;5.804;2023-02-26T12:04:26;15.80;59.70
20335;DHT22;10325;51.468;5.804;2023-02-26T12:06:55;15.80;60.80
20335;DHT22;10325;51.468;5.804;2023-02-26T12:09:25;15.70;60.70
20335;DHT22;10325;51.468;5.804;2023-02-26T12:24:09;15.50;61.70
20335;DHT22;10325;51.468;5.804;2023-02-26T12:27:04;15.60;61.70
20335;DHT22;10325;51.468;5.804;2023-02-26T12:33:13;15.60;61.90
20335;DHT22;10325;51.468;5.804;2023-02-26T12:39:39;15.40;62.30
20335;DHT22;10325;51.468;5.804;2023-02-26T13:03:28;15.30;63.30
20335;DHT22;10325;51.468;5.804;2023-02-26T13:20:57;15.20;63.00
20335;DHT22;10325;51.468;5.804;2023-02-26T13:23:37;15.20;63.10
20335;DHT22;10325;51.468;5.804;2023-02-26T13:26:12;15.20;63.40
20335;DHT22;10325;51.468;5.804;2023-02-26T13:29:09;15.30;63.70
20335;DHT22;10325;51.468;5.804;2023-02-26T13:34:46;15.20;63.30
20335;DHT22;10325;51.468;5.804;2023-02-26T13:37:38;15.30;63.50
20335;DHT22;10325;51.468;5.804;2023-02-26T13:52:00;15.30;64.10
20335;DHT22;10325;51.468;5.804;2023-02-26T13:54:44;15.30;64.50
20335;DHT22;10325;51.468;5.804;2023-02-26T14:00:30;15.20;64.10
20335;DHT22;10325;51.468;5.804;2023-02-26T14:06:38;15.20;64.80
20335;DHT22;10325;51.468;5.804;2023-02-26T14:09:33;15.20;64.30
20335;DHT22;10325;51.468;5.804;2023-02-26T14:12:22;15.20;64.70
20335;DHT22;10325;51.468;5.804;2023-02-26T14:18:02;15.30;65.00
20335;DHT22;10325;51.468;5.804;2023-02-26T14:20:38;15.20;64.80
20335;DHT22;10325;51.468;5.804;2023-02-26T14:23:11;15.20;64.90
20335;DHT22;10325;51.468;5.804;2023-02-26T14:25:52;15.20;65.30
20335;DHT22;10325;51.468;5.804;2023-02-26T14:28:36;15.20;65.10
20335;DHT22;10325;51.468;5.804;2023-02-26T14:31:15;15.20;65.40
20335;DHT22;10325;51.468;5.804;2023-02-26T14:34:12;15.30;65.50
20335;DHT22;10325;51.468;5.804;2023-02-26T14:36:57;15.30;65.40
20335;DHT22;10325;51.468;5.804;2023-02-26T14:39:58;15.30;65.80
20335;DHT22;10325;51.468;5.804;2023-02-26T14:42:42;15.30;65.60
20335;DHT22;10325;51.468;5.804;2023-02-26T14:45:35;15.30;65.60
20335;DHT22;10325;51.468;5.804;2023-02-26T14:48:15;15.30;65.70
20335;DHT22;10325;51.468;5.804;2023-02-26T15:03:19;15.30;65.90
20335;DHT22;10325;51.468;5.804;2023-02-26T15:06:27;15.30;65.70
20335;DHT22;10325;51.468;5.804;2023-02-26T15:09:23;15.30;66.00
20335;DHT22;10325;51.468;5.804;2023-02-26T15:21:20;15.30;65.50
20335;DHT22;10325;51.468;5.804;2023-02-26T15:23:56;15.30;64.70
20335;DHT22;10325;51.468;5.804;2023-02-26T15:26:35;15.20;65.50
20335;DHT22;10325;51.468;5.804;2023-02-26T15:29:28;15.30;65.90
20335;DHT22;10325;51.468;5.804;2023-02-26T15:34:48;15.30;66.00
20335;DHT22;10325;51.468;5.804;2023-02-26T15:37:31;15.30;66.00
20335;DHT22;10325;51.468;5.804;2023-02-26T15:40:06;15.30;66.00
20335;DHT22;10325;51.468;5.804;2023-02-26T15:42:40;15.30;66.10
20335;DHT22;10325;51.468;5.804;2023-02-26T15:45:37;15.30;66.00
20335;DHT22;10325;51.468;5.804;2023-02-26T15:48:14;15.30;66.00
20335;DHT22;10325;51.468;5.804;2023-02-26T15:50:47;15.30;66.10
20335;DHT22;10325;51.468;5.804;2023-02-26T15:53:33;15.30;66.00
20335;DHT22;10325;51.468;5.804;2023-02-26T15:56:08;15.30;66.00
20335;DHT22;10325;51.468;5.804;2023-02-26T15:59:09;15.30;65.80
20335;DHT22;10325;51.468;5.804;2023-02-26T16:01:35;15.30;65.80
20335;DHT22;10325;51.468;5.804;2023-02-26T16:04:20;15.30;66.10
20335;DHT22;10325;51.468;5.804;2023-02-26T16:06:55;15.30;65.70
20335;DHT22;10325;51.468;5.804;2023-02-26T16:10:02;15.30;65.70
20335;DHT22;10325;51.468;5.804;2023-02-26T16:12:39;15.30;65.50
20335;DHT22;10325;51.468;5.804;2023-02-26T16:15:45;15.30;65.50
20335;DHT22;10325;51.468;5.804;2023-02-26T16:18:24;15.30;65.80
20335;DHT22;10325;51.468;5.804;2023-02-26T16:21:15;15.30;65.60
20335;DHT22;10325;51.468;5.804;2023-02-26T16:23:51;15.20;65.70
20335;DHT22;10325;51.468;5.804;2023-02-26T16:26:31;15.30;65.70
20335;DHT22;10325;51.468;5.804;2023-02-26T16:29:10;15.30;65.60
20335;DHT22;10325;51.468;5.804;2023-02-26T16:31:43;15.30;65.80
20335;DHT22;10325;51.468;5.804;2023-02-26T16:34:59;15.20;65.70
20335;DHT22;10325;51.468;5.804;2023-02-26T16:37:33;15.30;65.50
20335;DHT22;10325;51.468;5.804;2023-02-26T16:40:40;15.30;65.40
20335;DHT22;10325;51.468;5.804;2023-02-26T16:43:33;15.20;65.60
20335;DHT22;10325;51.468;5.804;2023-02-26T16:46:14;15.20;65.70
20335;DHT22;10325;51.468;5.804;2023-02-26T16:49:00;15.20;65.60
20335;DHT22;10325;51.468;5.804;2023-02-26T16:51:35;15.20;65.70
20335;DHT22;10325;51.468;5.804;2023-02-26T16:54:50;15.20;65.80
20335;DHT22;10325;51.468;5.804;2023-02-26T16:57:29;15.20;65.70
20335;DHT22;10325;51.468;5.804;2023-02-26T17:00:04;15.20;65.70
20335;DHT22;10325;51.468;5.804;2023-02-26T17:02:40;15.20;65.80
20335;DHT22;10325;51.468;5.804;2023-02-26T17:05:26;15.20;65.70
20335;DHT22;10325;51.468;5.804;2023-02-26T17:08:14;15.20;65.50
20335;DHT22;10325;51.468;5.804;2023-02-26T17:10:59;15.20;65.60
20335;DHT22;10325;51.468;5.804;2023-02-26T17:13:36;15.20;65.40
20335;DHT22;10325;51.468;5.804;2023-02-26T17:16:12;15.20;65.60
20335;DHT22;10325;51.468;5.804;2023-02-26T17:18:41;15.20;65.60
20335;DHT22;10325;51.468;5.804;2023-02-26T17:21:13;15.20;65.50
20335;DHT22;10325;51.468;5.804;2023-02-26T17:23:43;15.20;65.30
20335;DHT22;10325;51.468;5.804;2023-02-26T17:26:10;15.20;65.30
20335;DHT22;10325;51.468;5.804;2023-02-26T17:28:43;15.20;65.20
20335;DHT22;10325;51.468;5.804;2023-02-26T17:31:15;15.20;65.10
20335;DHT22;10325;51.468;5.804;2023-02-26T17:33:43;15.20;65.70
20335;DHT22;10325;51.468;5.804;2023-02-26T17:36:19;15.20;65.00
20335;DHT22;10325;51.468;5.804;2023-02-26T17:38:51;15.20;65.00
20335;DHT22;10325;51.468;5.804;2023-02-26T17:41:23;15.20;65.00
20335;DHT22;10325;51.468;5.804;2023-02-26T17:43:54;15.20;64.90
20335;DHT22;10325;51.468;5.804;2023-02-26T17:46:27;15.20;64.80
20335;DHT22;10325;51.468;5.804;2023-02-26T17:49:00;15.20;64.80
20335;DHT22;10325;51.468;5.804;2023-02-26T17:51:31;15.20;64.80
20335;DHT22;10325;51.468;5.804;2023-02-26T17:54:02;15.20;64.70
20335;DHT22;10325;51.468;5.804;2023-02-26T17:56:36;15.20;64.70
20335;DHT22;10325;51.468;5.804;2023-02-26T17:59:04;15.20;65.30
20335;DHT22;10325;51.468;5.804;2023-02-26T18:01:37;15.20;64.60
20335;DHT22;10325;51.468;5.804;2023-02-26T18:04:08;15.20;64.60
20335;DHT22;10325;51.468;5.804;2023-02-26T18:06:42;15.10;64.50
20335;DHT22;10325;51.468;5.804;2023-02-26T18:09:14;15.10;64.60
20335;DHT22;10325;51.468;5.804;2023-02-26T18:11:45;15.10;64.50
20335;DHT22;10325;51.468;5.804;2023-02-26T18:14:20;15.10;64.50
20335;DHT22;10325;51.468;5.804;2023-02-26T18:16:54;15.20;64.50
20335;DHT22;10325;51.468;5.804;2023-02-26T18:19:30;15.20;64.50
20335;DHT22;10325;51.468;5.804;2023-02-26T18:22:01;15.20;64.50
20335;DHT22;10325;51.468;5.804;2023-02-26T18:24:30;15.10;64.40
20335;DHT22;10325;51.468;5.804;2023-02-26T18:26:58;15.10;64.30
20335;DHT22;10325;51.468;5.804;2023-02-26T18:29:28;15.10;64.30
20335;DHT22;10325;51.468;5.804;2023-02-26T18:31:59;15.20;64.30
20335;DHT22;10325;51.468;5.804;2023-02-26T18:34:34;15.10;64.30
20335;DHT22;10325;51.468;5.804;2023-02-26T18:37:05;15.10;64.30
20335;DHT22;10325;51.468;5.804;2023-02-26T18:39:48;15.10;64.20
20335;DHT22;10325;51.468;5.804;2023-02-26T18:42:26;15.10;64.20
20335;DHT22;10325;51.468;5.804;2023-02-26T18:44:57;15.10;64.20
20335;DHT22;10325;51.468;5.804;2023-02-26T18:47:28;15.10;64.20
20335;DHT22;10325;51.468;5.804;2023-02-26T18:49:59;15.10;64.10
20335;DHT22;10325;51.468;5.804;2023-02-26T18:52:30;15.10;64.20
20335;DHT22;10325;51.468;5.804;2023-02-26T18:54:59;15.10;64.20
20335;DHT22;10325;51.468;5.804;2023-02-26T18:57:31;15.10;64.10
20335;DHT22;10325;51.468;5.804;2023-02-26T19:00:02;15.10;64.00
20335;DHT22;10325;51.468;5.804;2023-02-26T19:02:35;15.10;64.00
20335;DHT22;10325;51.468;5.804;2023-02-26T19:05:06;15.10;64.00
20335;DHT22;10325;51.468;5.804;2023-02-26T19:07:35;15.10;63.90
20335;DHT22;10325;51.468;5.804;2023-02-26T19:10:09;15.10;64.00
20335;DHT22;10325;51.468;5.804;2023-02-26T19:12:52;15.10;64.00
20335;DHT22;10325;51.468;5.804;2023-02-26T19:15:23;15.10;64.00
20335;DHT22;10325;51.468;5.804;2023-02-26T19:17:53;15.00;63.90
20335;DHT22;10325;51.468;5.804;2023-02-26T19:20:23;15.10;63.90
20335;DHT22;10325;51.468;5.804;2023-02-26T19:22:52;15.00;63.80
20335;DHT22;10325;51.468;5.804;2023-02-26T19:25:27;15.00;63.60